sensor_id;sensor_type;location;lat;lon;timestamp;pressure;altitude;pressure_sealevel;temperature;humidity
1926;BME280;964;42.606;23.588;2023-03-26T00:01:08;93992.38;;;27.41;29.93
1926;BME280;964;42.606;23.588;2023-03-26T00:03:38;93994.00;;;28.32;28.76
1926;BME280;964;42.606;23.588;2023-03-26T00:06:08;93994.31;;;27.85;29.10
1926;BME280;964;42.606;23.588;2023-03-26T00:08:38;93985.81;;;27.62;28.85
1926;BME280;964;42.606;23.588;2023-03-26T00:11:07;93998.00;;;26.94;29.69
1926;BME280;964;42.606;23.588;2023-03-26T00:13:34;94007.88;;;27.20;29.33
1926;BME280;964;42.606;23.588;2023-03-26T00:16:01;94010.41;;;28.03;28.58
1926;BME280;964;42.606;23.588;2023-03-26T00:18:29;94022.84;;;26.87;29.37
1926;BME280;964;42.606;23.588;2023-03-26T00:21:00;94017.25;;;27.34;28.57
1926;BME280;964;42.606;23.588;2023-03-26T00:23:28;94019.91;;;27.43;28.68
1926;BME280;964;42.606;23.588;2023-03-26T00:25:55;94020.75;;;27.99;27.97
1926;BME280;964;42.606;23.588;2023-03-26T00:28:23;94012.00;;;28.44;27.26
1926;BME280;964;42.606;23.588;2023-03-26T00:30:56;93997.66;;;28.49;26.94
1926;BME280;964;42.606;23.588;2023-03-26T00:33:24;93990.38;;;27.86;27.31
1926;BME280;964;42.606;23.588;2023-03-26T00:35:52;93986.84;;;27.80;27.63
1926;BME280;964;42.606;23.588;2023-03-26T00:38:20;93987.59;;;27.36;28.07
1926;BME280;964;42.606;23.588;2023-03-26T00:40:48;93982.72;;;27.11;28.32
1926;BME280;964;42.606;23.588;2023-03-26T00:43:16;93974.38;;;27.58;27.72
1926;BME280;964;42.606;23.588;2023-03-26T00:45:45;93975.28;;;28.05;27.46
1926;BME280;964;42.606;23.588;2023-03-26T00:48:12;93967.34;;;28.21;27.11
1926;BME280;964;42.606;23.588;2023-03-26T00:50:39;93956.59;;;27.77;27.47
1926;BME280;964;42.606;23.588;2023-03-26T00:53:07;93957.38;;;27.63;27.42
1926;BME280;964;42.606;23.588;2023-03-26T00:55:36;93957.56;;;27.60;27.47
1926;BME280;964;42.606;23.588;2023-03-26T00:58:03;93960.19;;;27.54;27.58
1926;BME280;964;42.606;23.588;2023-03-26T01:00:33;93952.72;;;27.20;28.01
1926;BME280;964;42.606;23.588;2023-03-26T01:03:01;93953.28;;;27.24;27.62
1926;BME280;964;42.606;23.588;2023-03-26T01:05:45;93970.19;;;27.13;28.09
1926;BME280;964;42.606;23.588;2023-03-26T01:08:25;93973.72;;;27.34;27.72
1926;BME280;964;42.606;23.588;2023-03-26T01:10:54;93965.19;;;26.44;28.93
1926;BME280;964;42.606;23.588;2023-03-26T01:13:28;93958.84;;;27.99;27.24
1926;BME280;964;42.606;23.588;2023-03-26T01:15:57;93964.75;;;26.99;28.45
1926;BME280;964;42.606;23.588;2023-03-26T01:18:28;93968.22;;;27.14;28.18
1926;BME280;964;42.606;23.588;2023-03-26T01:21:00;93962.47;;;27.12;28.27
1926;BME280;964;42.606;23.588;2023-03-26T01:23:37;93964.88;;;26.80;28.46
1926;BME280;964;42.606;23.588;2023-03-26T01:26:13;93966.53;;;26.63;28.53
1926;BME280;964;42.606;23.588;2023-03-26T01:28:45;93982.31;;;26.36;29.03
1926;BME280;964;42.606;23.588;2023-03-26T01:31:16;93978.00;;;26.82;28.33
1926;BME280;964;42.606;23.588;2023-03-26T01:33:48;93985.41;;;26.81;28.56
1926;BME280;964;42.606;23.588;2023-03-26T01:36:26;94006.09;;;26.64;28.63
1926;BME280;964;42.606;23.588;2023-03-26T01:38:58;93991.75;;;27.46;27.09
1926;BME280;964;42.606;23.588;2023-03-26T01:41:32;94004.31;;;27.29;27.77
1926;BME280;964;42.606;23.588;2023-03-26T01:44:09;94011.72;;;26.75;27.99
1926;BME280;964;42.606;23.588;2023-03-26T01:46:40;94016.81;;;27.36;27.84
1926;BME280;964;42.606;23.588;2023-03-26T01:49:08;94017.41;;;26.87;27.79
1926;BME280;964;42.606;23.588;2023-03-26T01:51:38;94012.72;;;27.90;26.85
1926;BME280;964;42.606;23.588;2023-03-26T01:54:07;94006.00;;;27.70;26.82
1926;BME280;964;42.606;23.588;2023-03-26T01:56:44;94012.25;;;27.76;26.99
1926;BME280;964;42.606;23.588;2023-03-26T01:59:25;94016.31;;;25.98;28.84
1926;BME280;964;42.606;23.588;2023-03-26T02:01:59;94010.53;;;26.76;28.02
1926;BME280;964;42.606;23.588;2023-03-26T02:04:33;94015.03;;;26.79;27.72
1926;BME280;964;42.606;23.588;2023-03-26T02:07:06;94002.63;;;27.17;27.76
1926;BME280;964;42.606;23.588;2023-03-26T02:09:38;94009.56;;;27.62;27.63
1926;BME280;964;42.606;23.588;2023-03-26T02:12:12;94004.22;;;27.67;27.68
1926;BME280;964;42.606;23.588;2023-03-26T02:14:40;94008.66;;;26.44;28.91
1926;BME280;964;42.606;23.588;2023-03-26T02:17:07;93995.38;;;27.72;27.59
1926;BME280;964;42.606;23.588;2023-03-26T02:19:35;94010.53;;;26.76;28.60
1926;BME280;964;42.606;23.588;2023-03-26T02:22:06;94007.63;;;26.80;28.64
1926;BME280;964;42.606;23.588;2023-03-26T02:24:36;94008.66;;;26.44;29.05
1926;BME280;964;42.606;23.588;2023-03-26T02:27:03;94012.59;;;26.81;28.82
1926;BME280;964;42.606;23.588;2023-03-26T02:29:34;94005.97;;;26.83;29.07
1926;BME280;964;42.606;23.588;2023-03-26T02:32:03;94008.53;;;26.62;29.50
1926;BME280;964;42.606;23.588;2023-03-26T02:34:30;94000.78;;;26.46;29.11
1926;BME280;964;42.606;23.588;2023-03-26T02:36:57;94003.94;;;26.30;29.60
1926;BME280;964;42.606;23.588;2023-03-26T02:39:24;94006.22;;;26.46;29.53
1926;BME280;964;42.606;23.588;2023-03-26T02:41:52;94008.63;;;26.29;29.71
1926;BME280;964;42.606;23.588;2023-03-26T02:44:19;94012.25;;;26.50;29.14
1926;BME280;964;42.606;23.588;2023-03-26T02:46:48;94014.31;;;26.94;28.64
1926;BME280;964;42.606;23.588;2023-03-26T02:49:15;94016.94;;;26.17;29.83
1926;BME280;964;42.606;23.588;2023-03-26T02:51:42;94019.44;;;26.06;29.97
1926;BME280;964;42.606;23.588;2023-03-26T02:54:09;94022.88;;;26.39;29.72
1926;BME280;964;42.606;23.588;2023-03-26T02:56:35;94028.75;;;26.38;29.41
1926;BME280;964;42.606;23.588;2023-03-26T02:59:02;94030.00;;;26.37;29.68
1926;BME280;964;42.606;23.588;2023-03-26T03:01:29;94039.31;;;26.45;29.25
1926;BME280;964;42.606;23.588;2023-03-26T03:04:01;94036.94;;;27.29;28.27
1926;BME280;964;42.606;23.588;2023-03-26T03:06:28;94043.44;;;26.31;29.38
1926;BME280;964;42.606;23.588;2023-03-26T03:08:55;94051.53;;;25.23;31.11
1926;BME280;964;42.606;23.588;2023-03-26T03:11:21;94048.78;;;25.93;29.88
1926;BME280;964;42.606;23.588;2023-03-26T03:13:49;94061.31;;;26.23;29.81
1926;BME280;964;42.606;23.588;2023-03-26T03:16:16;94055.28;;;26.90;29.40
1926;BME280;964;42.606;23.588;2023-03-26T03:18:43;94057.69;;;27.41;28.23
1926;BME280;964;42.606;23.588;2023-03-26T03:21:11;94058.66;;;26.85;28.77
1926;BME280;964;42.606;23.588;2023-03-26T03:23:37;94055.13;;;27.61;27.96
1926;BME280;964;42.606;23.588;2023-03-26T03:26:11;94071.16;;;26.68;29.34
1926;BME280;964;42.606;23.588;2023-03-26T03:28:38;94066.88;;;26.28;29.87
1926;BME280;964;42.606;23.588;2023-03-26T03:31:05;94080.25;;;27.03;28.70
1926;BME280;964;42.606;23.588;2023-03-26T03:33:33;94076.34;;;26.80;29.08
1926;BME280;964;42.606;23.588;2023-03-26T03:36:00;94068.25;;;26.95;29.10
1926;BME280;964;42.606;23.588;2023-03-26T03:38:36;94060.44;;;27.56;28.19
1926;BME280;964;42.606;23.588;2023-03-26T03:41:03;94074.66;;;27.36;28.25
1926;BME280;964;42.606;23.588;2023-03-26T03:43:29;94071.88;;;27.89;27.76
1926;BME280;964;42.606;23.588;2023-03-26T03:45:57;94071.34;;;27.70;27.78
1926;BME280;964;42.606;23.588;2023-03-26T03:48:24;94063.47;;;28.22;27.54
1926;BME280;964;42.606;23.588;2023-03-26T03:50:51;94071.13;;;27.74;27.51
1926;BME280;964;42.606;23.588;2023-03-26T03:53:18;94077.69;;;26.61;28.97
1926;BME280;964;42.606;23.588;2023-03-26T03:55:46;94070.78;;;27.52;28.29
1926;BME280;964;42.606;23.588;2023-03-26T03:58:17;94074.31;;;27.43;27.98
1926;BME280;964;42.606;23.588;2023-03-26T04:00:46;94078.97;;;27.13;28.49
1926;BME280;964;42.606;23.588;2023-03-26T04:03:13;94094.09;;;26.43;29.31
1926;BME280;964;42.606;23.588;2023-03-26T04:05:40;94088.53;;;27.09;28.77
1926;BME280;964;42.606;23.588;2023-03-26T04:08:07;94105.69;;;26.76;28.81
1926;BME280;964;42.606;23.588;2023-03-26T04:10:34;94092.72;;;27.77;28.34
1926;BME280;964;42.606;23.588;2023-03-26T04:13:02;94102.28;;;27.44;28.54
1926;BME280;964;42.606;23.588;2023-03-26T04:15:29;94099.09;;;26.68;29.34
1926;BME280;964;42.606;23.588;2023-03-26T04:17:56;94101.66;;;26.96;28.79
1926;BME280;964;42.606;23.588;2023-03-26T04:20:23;94100.97;;;27.39;28.24
1926;BME280;964;42.606;23.588;2023-03-26T04:22:49;94103.59;;;28.07;27.60
1926;BME280;964;42.606;23.588;2023-03-26T04:25:17;94110.56;;;27.93;27.63
1926;BME280;964;42.606;23.588;2023-03-26T04:27:46;94126.81;;;27.20;28.58
1926;BME280;964;42.606;23.588;2023-03-26T04:30:17;94134.19;;;27.28;28.53
1926;BME280;964;42.606;23.588;2023-03-26T04:32:45;94144.31;;;27.28;28.65
1926;BME280;964;42.606;23.588;2023-03-26T04:35:14;94147.63;;;27.08;28.98
1926;BME280;964;42.606;23.588;2023-03-26T04:37:41;94151.88;;;27.24;28.88
1926;BME280;964;42.606;23.588;2023-03-26T04:40:13;94153.09;;;26.75;29.56
1926;BME280;964;42.606;23.588;2023-03-26T04:42:40;94154.56;;;26.29;30.32
1926;BME280;964;42.606;23.588;2023-03-26T04:45:11;94152.44;;;27.96;28.29
1926;BME280;964;42.606;23.588;2023-03-26T04:47:39;94156.03;;;26.96;29.08
1926;BME280;964;42.606;23.588;2023-03-26T04:50:08;94151.69;;;27.66;28.36
1926;BME280;964;42.606;23.588;2023-03-26T04:52:36;94158.19;;;26.59;29.83
1926;BME280;964;42.606;23.588;2023-03-26T04:55:06;94166.94;;;26.30;30.02
1926;BME280;964;42.606;23.588;2023-03-26T04:57:36;94162.81;;;26.34;30.17
1926;BME280;964;42.606;23.588;2023-03-26T05:00:08;94167.50;;;26.67;29.81
1926;BME280;964;42.606;23.588;2023-03-26T05:02:41;94163.97;;;26.75;29.30
1926;BME280;964;42.606;23.588;2023-03-26T05:05:08;94178.16;;;26.79;29.77
1926;BME280;964;42.606;23.588;2023-03-26T05:07:35;94167.09;;;27.84;28.16
1926;BME280;964;42.606;23.588;2023-03-26T05:10:02;94172.09;;;27.32;29.22
1926;BME280;964;42.606;23.588;2023-03-26T05:12:29;94176.56;;;27.20;28.87
1926;BME280;964;42.606;23.588;2023-03-26T05:14:56;94167.78;;;27.02;29.14
1926;BME280;964;42.606;23.588;2023-03-26T05:17:23;94166.91;;;28.02;27.91
1926;BME280;964;42.606;23.588;2023-03-26T05:19:52;94174.63;;;27.89;28.19
1926;BME280;964;42.606;23.588;2023-03-26T05:22:18;94183.81;;;27.38;28.68
1926;BME280;964;42.606;23.588;2023-03-26T05:24:45;94186.38;;;28.24;27.52
1926;BME280;964;42.606;23.588;2023-03-26T05:27:13;94184.50;;;28.30;27.39
1926;BME280;964;42.606;23.588;2023-03-26T05:29:41;94183.81;;;28.35;27.61
1926;BME280;964;42.606;23.588;2023-03-26T05:32:08;94188.44;;;28.64;27.02
1926;BME280;964;42.606;23.588;2023-03-26T05:34:35;94179.47;;;28.43;27.10
1926;BME280;964;42.606;23.588;2023-03-26T05:37:03;94175.59;;;28.50;27.35
1926;BME280;964;42.606;23.588;2023-03-26T05:39:31;94176.78;;;27.85;27.98
1926;BME280;964;42.606;23.588;2023-03-26T05:41:58;94179.50;;;28.29;27.34
1926;BME280;964;42.606;23.588;2023-03-26T05:44:25;94193.94;;;27.61;28.16
1926;BME280;964;42.606;23.588;2023-03-26T05:46:51;94193.94;;;28.49;26.75
1926;BME280;964;42.606;23.588;2023-03-26T05:49:18;94188.06;;;27.39;27.86
1926;BME280;964;42.606;23.588;2023-03-26T05:51:45;94201.25;;;27.55;27.60
1926;BME280;964;42.606;23.588;2023-03-26T05:57:23;94204.31;;;27.87;27.83
1926;BME280;964;42.606;23.588;2023-03-26T05:59:53;94206.75;;;28.43;27.65
1926;BME280;964;42.606;23.588;2023-03-26T06:02:19;94202.09;;;27.76;27.45
1926;BME280;964;42.606;23.588;2023-03-26T06:04:46;94211.94;;;28.91;26.41
1926;BME280;964;42.606;23.588;2023-03-26T06:07:12;94204.81;;;29.34;26.16
1926;BME280;964;42.606;23.588;2023-03-26T06:09:41;94193.22;;;29.85;25.52
1926;BME280;964;42.606;23.588;2023-03-26T06:12:09;94194.28;;;30.44;24.56
1926;BME280;964;42.606;23.588;2023-03-26T06:14:37;94192.78;;;30.43;24.90
1926;BME280;964;42.606;23.588;2023-03-26T06:17:04;94180.88;;;31.31;24.18
1926;BME280;964;42.606;23.588;2023-03-26T06:19:31;94194.06;;;30.85;24.67
1926;BME280;964;42.606;23.588;2023-03-26T06:21:57;94192.63;;;30.58;24.66
1926;BME280;964;42.606;23.588;2023-03-26T06:24:24;94191.09;;;31.42;23.63
1926;BME280;964;42.606;23.588;2023-03-26T06:26:51;94197.72;;;31.78;23.80
1926;BME280;964;42.606;23.588;2023-03-26T06:29:18;94199.03;;;30.86;23.89
1926;BME280;964;42.606;23.588;2023-03-26T06:31:46;94211.47;;;29.12;25.62
1926;BME280;964;42.606;23.588;2023-03-26T06:34:12;94219.16;;;28.94;26.05
1926;BME280;964;42.606;23.588;2023-03-26T06:36:39;94218.53;;;29.39;25.40
1926;BME280;964;42.606;23.588;2023-03-26T06:39:06;94215.53;;;29.37;25.72
1926;BME280;964;42.606;23.588;2023-03-26T06:41:32;94212.59;;;30.38;25.05
1926;BME280;964;42.606;23.588;2023-03-26T06:43:59;94218.06;;;30.38;24.56
1926;BME280;964;42.606;23.588;2023-03-26T06:46:26;94206.13;;;30.10;24.86
1926;BME280;964;42.606;23.588;2023-03-26T06:48:54;94207.88;;;30.70;24.14
1926;BME280;964;42.606;23.588;2023-03-26T06:51:21;94206.44;;;30.75;24.49
1926;BME280;964;42.606;23.588;2023-03-26T06:53:48;94214.53;;;30.32;24.41
1926;BME280;964;42.606;23.588;2023-03-26T06:56:15;94213.03;;;30.31;24.49
1926;BME280;964;42.606;23.588;2023-03-26T06:58:41;94217.00;;;30.56;24.30
1926;BME280;964;42.606;23.588;2023-03-26T07:01:08;94207.78;;;30.28;24.16
1926;BME280;964;42.606;23.588;2023-03-26T07:03:35;94206.41;;;30.12;24.17
1926;BME280;964;42.606;23.588;2023-03-26T07:06:03;94208.38;;;30.37;24.24
1926;BME280;964;42.606;23.588;2023-03-26T07:08:30;94213.13;;;30.42;23.75
1926;BME280;964;42.606;23.588;2023-03-26T07:10:57;94207.53;;;32.12;22.85
1926;BME280;964;42.606;23.588;2023-03-26T07:13:23;94212.13;;;31.67;22.68
1926;BME280;964;42.606;23.588;2023-03-26T07:15:50;94208.22;;;31.90;22.25
1926;BME280;964;42.606;23.588;2023-03-26T07:18:17;94202.25;;;32.03;22.67
1926;BME280;964;42.606;23.588;2023-03-26T07:20:44;94192.81;;;32.32;22.71
1926;BME280;964;42.606;23.588;2023-03-26T07:23:13;94198.97;;;31.88;22.26
1926;BME280;964;42.606;23.588;2023-03-26T07:25:44;94206.69;;;31.78;21.78
1926;BME280;964;42.606;23.588;2023-03-26T07:28:19;94205.03;;;32.36;21.87
1926;BME280;964;42.606;23.588;2023-03-26T07:30:58;94193.69;;;33.34;20.83
1926;BME280;964;42.606;23.588;2023-03-26T07:33:30;94186.28;;;33.01;21.04
1926;BME280;964;42.606;23.588;2023-03-26T07:36:07;94192.28;;;33.11;21.30
1926;BME280;964;42.606;23.588;2023-03-26T07:38:47;94190.13;;;33.50;20.46
1926;BME280;964;42.606;23.588;2023-03-26T07:41:22;94186.31;;;32.96;21.48
1926;BME280;964;42.606;23.588;2023-03-26T07:44:05;94181.00;;;33.20;20.75
1926;BME280;964;42.606;23.588;2023-03-26T07:46:36;94179.03;;;34.19;20.00
1926;BME280;964;42.606;23.588;2023-03-26T07:49:04;94170.31;;;33.69;20.71
1926;BME280;964;42.606;23.588;2023-03-26T07:51:31;94167.88;;;34.00;20.23
1926;BME280;964;42.606;23.588;2023-03-26T07:54:00;94179.91;;;33.92;20.39
1926;BME280;964;42.606;23.588;2023-03-26T07:56:32;94166.25;;;34.22;19.70
1926;BME280;964;42.606;23.588;2023-03-26T07:59:11;94187.38;;;33.50;20.31
1926;BME280;964;42.606;23.588;2023-03-26T08:01:51;94172.97;;;33.85;19.88
1926;BME280;964;42.606;23.588;2023-03-26T08:04:58;94177.09;;;34.03;19.49
1926;BME280;964;42.606;23.588;2023-03-26T08:07:43;94173.28;;;34.77;18.62
1926;BME280;964;42.606;23.588;2023-03-26T08:10:21;94167.13;;;35.19;17.89
1926;BME280;964;42.606;23.588;2023-03-26T08:12:54;94165.72;;;35.07;18.13
1926;BME280;964;42.606;23.588;2023-03-26T08:15:27;94150.16;;;35.53;17.73
1926;BME280;964;42.606;23.588;2023-03-26T08:18:03;94147.84;;;35.19;17.73
1926;BME280;964;42.606;23.588;2023-03-26T08:20:39;94139.31;;;36.74;16.94
1926;BME280;964;42.606;23.588;2023-03-26T08:23:16;94146.25;;;37.07;16.82
1926;BME280;964;42.606;23.588;2023-03-26T08:25:52;94147.91;;;36.07;15.20
1926;BME280;964;42.606;23.588;2023-03-26T08:28:31;94150.63;;;35.94;16.06
1926;BME280;964;42.606;23.588;2023-03-26T08:31:02;94143.91;;;37.11;15.96
1926;BME280;964;42.606;23.588;2023-03-26T08:33:30;94147.31;;;37.17;15.73
1926;BME280;964;42.606;23.588;2023-03-26T08:35:56;94152.25;;;36.21;15.66
1926;BME280;964;42.606;23.588;2023-03-26T08:38:23;94147.44;;;36.22;15.63
1926;BME280;964;42.606;23.588;2023-03-26T08:41:16;94147.31;;;36.14;15.97
1926;BME280;964;42.606;23.588;2023-03-26T08:44:07;94142.59;;;37.39;14.73
1926;BME280;964;42.606;23.588;2023-03-26T08:47:04;94146.22;;;36.94;14.96
1926;BME280;964;42.606;23.588;2023-03-26T08:50:19;94150.81;;;36.47;15.72
1926;BME280;964;42.606;23.588;2023-03-26T08:53:13;94151.22;;;35.87;14.38
1926;BME280;964;42.606;23.588;2023-03-26T08:55:50;94133.63;;;36.54;14.75
1926;BME280;964;42.606;23.588;2023-03-26T08:58:54;94142.06;;;36.88;14.19
1926;BME280;964;42.606;23.588;2023-03-26T09:01:49;94140.47;;;36.92;15.23
1926;BME280;964;42.606;23.588;2023-03-26T09:08:02;94144.97;;;35.68;15.77
1926;BME280;964;42.606;23.588;2023-03-26T09:14:13;94138.56;;;37.00;14.87
1926;BME280;964;42.606;23.588;2023-03-26T09:17:27;94142.50;;;37.91;14.81
1926;BME280;964;42.606;23.588;2023-03-26T09:20:35;94142.84;;;37.01;15.45
1926;BME280;964;42.606;23.588;2023-03-26T09:26:17;94147.75;;;37.08;14.43
1926;BME280;964;42.606;23.588;2023-03-26T09:32:11;94129.88;;;36.06;15.04
1926;BME280;964;42.606;23.588;2023-03-26T09:35:02;94131.13;;;36.95;14.84
1926;BME280;964;42.606;23.588;2023-03-26T09:37:48;94114.91;;;37.65;14.60
1926;BME280;964;42.606;23.588;2023-03-26T09:40:20;94122.22;;;38.71;14.08
1926;BME280;964;42.606;23.588;2023-03-26T09:42:52;94121.13;;;37.31;15.09
1926;BME280;964;42.606;23.588;2023-03-26T09:45:35;94122.31;;;37.96;14.75
1926;BME280;964;42.606;23.588;2023-03-26T09:48:39;94124.34;;;37.09;14.93
1926;BME280;964;42.606;23.588;2023-03-26T09:51:36;94113.75;;;37.60;14.02
1926;BME280;964;42.606;23.588;2023-03-26T09:54:45;94104.69;;;37.73;14.59
1926;BME280;964;42.606;23.588;2023-03-26T09:57:27;94101.69;;;38.95;13.64
1926;BME280;964;42.606;23.588;2023-03-26T10:00:18;94099.41;;;38.16;14.50
1926;BME280;964;42.606;23.588;2023-03-26T10:03:01;94095.97;;;38.93;14.08
1926;BME280;964;42.606;23.588;2023-03-26T10:05:50;94089.16;;;39.30;13.52
1926;BME280;964;42.606;23.588;2023-03-26T10:08:31;94094.28;;;38.90;13.94
1926;BME280;964;42.606;23.588;2023-03-26T10:11:07;94085.16;;;38.12;13.73
1926;BME280;964;42.606;23.588;2023-03-26T10:13:47;94092.59;;;38.17;13.86
1926;BME280;964;42.606;23.588;2023-03-26T10:16:22;94077.34;;;39.01;13.55
1926;BME280;964;42.606;23.588;2023-03-26T10:18:58;94078.72;;;37.76;14.20
1926;BME280;964;42.606;23.588;2023-03-26T10:21:40;94080.75;;;38.58;13.80
1926;BME280;964;42.606;23.588;2023-03-26T10:24:24;94072.50;;;37.96;13.66
1926;BME280;964;42.606;23.588;2023-03-26T10:27:05;94070.56;;;38.33;13.23
1926;BME280;964;42.606;23.588;2023-03-26T10:29:58;94056.13;;;38.75;13.28
1926;BME280;964;42.606;23.588;2023-03-26T10:32:30;94044.97;;;39.40;13.38
1926;BME280;964;42.606;23.588;2023-03-26T10:35:10;94052.56;;;38.39;13.66
1926;BME280;964;42.606;23.588;2023-03-26T10:37:53;94039.81;;;39.00;13.59
1926;BME280;964;42.606;23.588;2023-03-26T10:40:26;94034.09;;;38.98;13.44
1926;BME280;964;42.606;23.588;2023-03-26T10:43:13;94041.38;;;38.03;13.89
1926;BME280;964;42.606;23.588;2023-03-26T10:46:12;94039.97;;;36.95;14.12
1926;BME280;964;42.606;23.588;2023-03-26T10:48:57;94017.75;;;38.31;13.55
1926;BME280;964;42.606;23.588;2023-03-26T10:51:45;94033.09;;;38.32;13.93
1926;BME280;964;42.606;23.588;2023-03-26T10:54:25;94012.28;;;39.02;13.69
1926;BME280;964;42.606;23.588;2023-03-26T10:56:56;94029.78;;;37.03;14.05
1926;BME280;964;42.606;23.588;2023-03-26T10:59:25;94021.84;;;37.88;13.65
1926;BME280;964;42.606;23.588;2023-03-26T11:02:03;94021.47;;;38.54;13.97
1926;BME280;964;42.606;23.588;2023-03-26T11:04:39;94016.56;;;37.77;14.20
1926;BME280;964;42.606;23.588;2023-03-26T11:07:16;94023.69;;;38.35;13.96
1926;BME280;964;42.606;23.588;2023-03-26T11:09:51;94015.94;;;38.33;13.66
1926;BME280;964;42.606;23.588;2023-03-26T11:12:25;94013.06;;;39.10;13.12
1926;BME280;964;42.606;23.588;2023-03-26T11:15:00;94004.19;;;39.04;13.76
1926;BME280;964;42.606;23.588;2023-03-26T11:17:37;94003.19;;;38.87;13.64
1926;BME280;964;42.606;23.588;2023-03-26T11:20:09;93993.72;;;40.92;12.38
1926;BME280;964;42.606;23.588;2023-03-26T11:22:48;93983.66;;;40.57;12.82
1926;BME280;964;42.606;23.588;2023-03-26T11:25:25;93981.16;;;41.39;13.02
1926;BME280;964;42.606;23.588;2023-03-26T11:28:03;93997.38;;;40.02;12.49
1926;BME280;964;42.606;23.588;2023-03-26T11:30:39;93992.75;;;39.89;12.81
1926;BME280;964;42.606;23.588;2023-03-26T11:33:12;93994.78;;;39.74;12.72
1926;BME280;964;42.606;23.588;2023-03-26T11:35:44;94007.69;;;39.56;13.05
1926;BME280;964;42.606;23.588;2023-03-26T11:38:15;93991.09;;;39.71;12.90
1926;BME280;964;42.606;23.588;2023-03-26T11:40:46;93992.00;;;39.81;12.97
1926;BME280;964;42.606;23.588;2023-03-26T11:43:17;93991.25;;;38.71;13.02
1926;BME280;964;42.606;23.588;2023-03-26T11:45:47;93977.56;;;40.58;12.82
1926;BME280;964;42.606;23.588;2023-03-26T11:48:19;93958.59;;;41.20;11.65
1926;BME280;964;42.606;23.588;2023-03-26T11:50:52;93957.94;;;40.96;11.98
1926;BME280;964;42.606;23.588;2023-03-26T11:53:24;93966.81;;;39.49;13.13
1926;BME280;964;42.606;23.588;2023-03-26T11:55:58;93954.41;;;39.65;12.86
1926;BME280;964;42.606;23.588;2023-03-26T11:58:28;93942.91;;;40.44;12.68
1926;BME280;964;42.606;23.588;2023-03-26T12:01:02;93927.22;;;41.27;12.13
1926;BME280;964;42.606;23.588;2023-03-26T12:03:29;93938.91;;;39.92;12.09
1926;BME280;964;42.606;23.588;2023-03-26T12:05:58;93913.25;;;42.33;11.34
1926;BME280;964;42.606;23.588;2023-03-26T12:08:32;93916.44;;;42.05;11.36
1926;BME280;964;42.606;23.588;2023-03-26T12:11:05;93916.72;;;42.17;10.57
1926;BME280;964;42.606;23.588;2023-03-26T12:13:37;93904.69;;;42.14;10.58
1926;BME280;964;42.606;23.588;2023-03-26T12:16:11;93886.69;;;43.83;10.73
1926;BME280;964;42.606;23.588;2023-03-26T12:18:39;93907.34;;;42.29;11.07
1926;BME280;964;42.606;23.588;2023-03-26T12:21:09;93909.56;;;41.89;10.94
1926;BME280;964;42.606;23.588;2023-03-26T12:23:42;93914.13;;;42.87;10.82
1926;BME280;964;42.606;23.588;2023-03-26T12:26:14;93904.44;;;42.54;10.94
1926;BME280;964;42.606;23.588;2023-03-26T12:28:45;93906.72;;;42.14;10.72
1926;BME280;964;42.606;23.588;2023-03-26T12:31:13;93904.31;;;40.71;11.69
1926;BME280;964;42.606;23.588;2023-03-26T12:33:43;93897.22;;;41.99;11.39
1926;BME280;964;42.606;23.588;2023-03-26T12:36:19;93881.81;;;42.67;11.04
1926;BME280;964;42.606;23.588;2023-03-26T12:38:47;93887.69;;;41.85;11.06
1926;BME280;964;42.606;23.588;2023-03-26T12:41:17;93886.28;;;41.52;11.26
1926;BME280;964;42.606;23.588;2023-03-26T12:43:46;93877.94;;;43.24;10.48
1926;BME280;964;42.606;23.588;2023-03-26T12:46:22;93868.78;;;43.14;10.50
1926;BME280;964;42.606;23.588;2023-03-26T12:48:52;93857.78;;;43.52;10.62
1926;BME280;964;42.606;23.588;2023-03-26T12:51:35;93868.22;;;42.02;11.07
1926;BME280;964;42.606;23.588;2023-03-26T12:54:32;93863.19;;;42.26;10.90
1926;BME280;964;42.606;23.588;2023-03-26T12:57:13;93858.97;;;42.69;10.97
1926;BME280;964;42.606;23.588;2023-03-26T12:59:51;93848.13;;;43.26;10.12
1926;BME280;964;42.606;23.588;2023-03-26T13:02:43;93849.56;;;41.21;10.84
1926;BME280;964;42.606;23.588;2023-03-26T13:05:29;93836.91;;;43.89;9.98
1926;BME280;964;42.606;23.588;2023-03-26T13:08:05;93834.53;;;44.05;9.68
1926;BME280;964;42.606;23.588;2023-03-26T13:10:47;93825.88;;;44.11;10.06
1926;BME280;964;42.606;23.588;2023-03-26T13:13:37;93847.06;;;41.57;10.00
1926;BME280;964;42.606;23.588;2023-03-26T13:16:15;93847.81;;;41.58;9.97
1926;BME280;964;42.606;23.588;2023-03-26T13:18:53;93843.59;;;41.74;9.76
1926;BME280;964;42.606;23.588;2023-03-26T13:21:29;93853.47;;;39.53;10.67
1926;BME280;964;42.606;23.588;2023-03-26T13:24:06;93847.53;;;39.79;10.54
1926;BME280;964;42.606;23.588;2023-03-26T13:26:45;93838.03;;;40.68;10.38
1926;BME280;964;42.606;23.588;2023-03-26T13:29:22;93833.06;;;41.90;9.76
1926;BME280;964;42.606;23.588;2023-03-26T13:31:55;93819.38;;;42.53;10.05
1926;BME280;964;42.606;23.588;2023-03-26T13:34:34;93815.81;;;42.96;9.43
1926;BME280;964;42.606;23.588;2023-03-26T13:37:09;93824.84;;;42.61;9.68
1926;BME280;964;42.606;23.588;2023-03-26T13:39:48;93835.22;;;41.99;9.69
1926;BME280;964;42.606;23.588;2023-03-26T13:42:31;93842.31;;;41.75;9.68
1926;BME280;964;42.606;23.588;2023-03-26T13:45:11;93836.78;;;40.53;9.55
1926;BME280;964;42.606;23.588;2023-03-26T13:47:43;93841.97;;;39.79;9.68
1926;BME280;964;42.606;23.588;2023-03-26T13:50:19;93829.25;;;40.39;9.79
1926;BME280;964;42.606;23.588;2023-03-26T13:52:49;93839.22;;;38.60;9.56
1926;BME280;964;42.606;23.588;2023-03-26T13:55:24;93843.09;;;38.13;9.68
1926;BME280;964;42.606;23.588;2023-03-26T13:57:59;93834.44;;;38.60;9.16
1926;BME280;964;42.606;23.588;2023-03-26T14:00:44;93825.63;;;40.13;9.39
1926;BME280;964;42.606;23.588;2023-03-26T14:03:24;93826.03;;;38.96;10.13
1926;BME280;964;42.606;23.588;2023-03-26T14:05:56;93840.41;;;38.28;9.59
1926;BME280;964;42.606;23.588;2023-03-26T14:08:28;93831.47;;;38.51;9.80
1926;BME280;964;42.606;23.588;2023-03-26T14:11:01;93826.50;;;38.57;9.57